This is the latest recevied weather packets stored in our database for station/object SQ8NA-15. If no packets are shown the sender has not sent any weather packets the latest 10 day(s).
| Time | Temp. | Humidity | Pressure | Rain* | Wind** | Luminosity | Snow |
|---|---|---|---|---|---|---|---|
| 1787520773 | 9.44° C | 94% | 984.2 hPa | 0 mm | - | 0 W/m² | - |
| 1787519547 | 9.44° C | 93% | 984.3 hPa | 0 mm | - | 0 W/m² | - |
| 1787518937 | 10° C | 93% | 984.2 hPa | 0 mm | - | 0 W/m² | - |
| 1787518323 | 10° C | 92% | 984.1 hPa | 0 mm | - | 0 W/m² | - |
| 1787510025 | 14.44° C | 72% | 983.8 hPa | 0 mm | - | 0 W/m² | - |
| 1787508785 | 15.56° C | 66% | 983.6 hPa | 0 mm | - | 0 W/m² | - |
| 1787508185 | 15.56° C | 65% | 983.5 hPa | 0 mm | - | 0 W/m² | - |
| 1787507575 | 15.56° C | 66% | 983.4 hPa | 0 mm | - | 0 W/m² | - |
| 1787506349 | 15.56° C | 64% | 983.4 hPa | 0 mm | - | 4 W/m² | - |
| 1787505749 | 16.11° C | 63% | 983.2 hPa | 0 mm | - | 7 W/m² | - |
| 1787505149 | 16.11° C | 63% | 983.3 hPa | 0 mm | - | 13 W/m² | - |
| 1787503924 | 17.22° C | 58% | 983.3 hPa | 0 mm | - | 24 W/m² | - |
| 1787503312 | 17.78° C | 59% | 983.3 hPa | 0 mm | - | 29 W/m² | - |
| 1787502701 | 17.78° C | 57% | 983.3 hPa | 0 mm | - | 34 W/m² | - |
| 1787501460 | 18.33° C | 55% | 983.3 hPa | 0 mm | - | 43 W/m² | - |
| 1787500849 | 18.89° C | 54% | 983.4 hPa | 0 mm | - | 47 W/m² | - |
| 1787500236 | 19.44° C | 51% | 983.4 hPa | 0 mm | - | 51 W/m² | - |
| 1787499012 | 20° C | 52% | 983.4 hPa | 0 mm | - | 132 W/m² | - |
| 1787498412 | 20° C | 52% | 983.4 hPa | 0 mm | - | 78 W/m² | - |
| 1787497798 | 20.56° C | 52% | 983.4 hPa | 0 mm | - | 212 W/m² | - |
| 1787496562 | 20.56° C | 47% | 983.4 hPa | 0 mm | - | 290 W/m² | - |
| 1787495947 | 21.11° C | 45% | 983.4 hPa | 0 mm | - | 326 W/m² | - |
| 1787495337 | 20.56° C | 46% | 983.4 hPa | 0 mm | - | 343 W/m² | - |
| 1787494112 | 21.67° C | 45% | 983.4 hPa | 0 mm | - | 466 W/m² | - |
| 1787493497 | 21.11° C | 43% | 983.4 hPa | 0 mm | - | 455 W/m² | - |
* Rain latest hour (hover to see other rain measurements)
** Current wind speed in m/s (hover to see current wind gust speed)